createdAt,value
2016-12-23T00:00:02.419Z,3.21
2016-12-23T00:05:02.744Z,3.24
2016-12-23T00:10:03.174Z,3.24
2016-12-23T00:15:02.670Z,3.29
2016-12-23T00:20:03.116Z,3.36
2016-12-23T00:25:02.550Z,3.43
2016-12-23T00:30:02.893Z,3.56
2016-12-23T00:35:02.273Z,3.61
2016-12-23T00:40:02.751Z,3.61
2016-12-23T00:45:03.136Z,3.63
2016-12-23T00:50:02.506Z,3.59
2016-12-23T00:55:03.001Z,3.55
2016-12-23T01:00:02.386Z,3.47
2016-12-23T01:05:02.742Z,3.38
2016-12-23T01:10:03.099Z,3.26
2016-12-23T01:15:02.428Z,3.2
2016-12-23T01:20:02.865Z,3.13
2016-12-23T01:25:02.217Z,3.06
2016-12-23T01:30:02.569Z,3.04
2016-12-23T01:35:02.956Z,3.02
2016-12-23T01:40:02.419Z,2.98
2016-12-23T01:45:02.786Z,2.93
2016-12-23T01:50:03.151Z,2.86
2016-12-23T01:55:02.518Z,2.82
2016-12-23T02:00:02.866Z,2.8
2016-12-23T02:05:02.231Z,2.79
2016-12-23T02:10:02.618Z,2.76
2016-12-23T02:15:02.962Z,2.75
2016-12-23T02:20:02.424Z,2.73
2016-12-23T02:25:02.744Z,2.68
2016-12-23T02:30:03.112Z,2.59
2016-12-23T02:35:02.443Z,2.55
2016-12-23T02:40:02.783Z,2.52
2016-12-23T02:45:03.121Z,2.45
2016-12-23T02:50:02.511Z,2.43
2016-12-23T02:55:02.861Z,2.4
2016-12-23T03:00:02.226Z,2.38
2016-12-23T03:05:02.575Z,2.39
2016-12-23T03:10:02.970Z,2.49
2016-12-23T03:15:02.312Z,2.58
2016-12-23T03:20:02.793Z,2.68
2016-12-23T03:25:03.164Z,2.82
2016-12-23T03:30:02.554Z,2.94
2016-12-23T03:35:02.915Z,3.06
2016-12-23T03:40:02.277Z,3.15
2016-12-23T03:45:02.603Z,3.23
2016-12-23T03:50:02.947Z,3.31
2016-12-23T03:55:02.260Z,3.39
2016-12-23T04:00:02.625Z,3.4
2016-12-23T04:05:02.979Z,3.42
2016-12-23T04:10:02.346Z,3.48
2016-12-23T04:15:02.710Z,3.53
2016-12-23T04:20:02.202Z,3.56
2016-12-23T04:25:02.497Z,3.53
2016-12-23T04:30:02.856Z,3.49
2016-12-23T04:35:02.241Z,3.48
2016-12-23T04:40:02.595Z,3.46
2016-12-23T04:45:02.959Z,3.43
2016-12-23T04:50:02.349Z,3.41
2016-12-23T04:55:02.689Z,3.38
2016-12-23T05:00:03.060Z,3.35
2016-12-23T05:05:02.412Z,3.32
2016-12-23T05:10:02.762Z,3.33
2016-12-23T05:15:03.105Z,3.32
2016-12-23T05:20:02.554Z,3.32
2016-12-23T05:25:02.931Z,3.32
2016-12-23T05:30:02.284Z,3.3
2016-12-23T05:35:02.660Z,3.28
2016-12-23T05:40:03.026Z,3.27
2016-12-23T05:45:02.337Z,3.27
2016-12-23T05:50:02.727Z,3.3
2016-12-23T05:55:03.085Z,3.3
2016-12-23T06:00:02.414Z,3.3
2016-12-23T06:05:02.918Z,3.32
2016-12-23T06:10:02.337Z,3.34
2016-12-23T06:15:02.711Z,3.4
2016-12-23T06:20:02.187Z,3.47
2016-12-23T06:25:02.533Z,3.53
2016-12-23T06:30:02.871Z,3.56
2016-12-23T06:35:02.282Z,3.61
2016-12-23T06:40:02.648Z,3.62
2016-12-23T06:45:02.996Z,3.64
2016-12-23T06:50:02.375Z,3.7
2016-12-23T06:55:02.737Z,3.73
2016-12-23T07:00:03.088Z,3.82
2016-12-23T07:05:02.441Z,3.89
2016-12-23T07:10:02.824Z,3.94
2016-12-23T07:15:02.315Z,4
2016-12-23T07:20:02.871Z,4.03
2016-12-23T07:25:02.201Z,4.07
2016-12-23T07:30:02.550Z,4.12
2016-12-23T07:35:03.024Z,4.17
2016-12-23T07:40:02.470Z,4.18
2016-12-23T07:45:02.872Z,4.21
2016-12-23T07:50:02.257Z,4.24
2016-12-23T07:55:02.654Z,4.27
2016-12-23T08:00:03.104Z,4.3
2016-12-23T08:05:02.536Z,4.31
2016-12-23T08:10:02.935Z,4.29
2016-12-23T08:15:02.332Z,4.29
2016-12-23T08:20:02.814Z,4.3
2016-12-23T08:25:02.210Z,4.3
2016-12-23T08:30:02.636Z,4.32
2016-12-23T08:35:03.045Z,4.31
2016-12-23T08:40:02.450Z,4.28
2016-12-23T08:45:02.862Z,4.24
2016-12-23T08:50:02.284Z,4.2
2016-12-23T08:55:02.668Z,4.16
2016-12-23T09:00:03.083Z,4.07
2016-12-23T09:05:02.419Z,4.01
2016-12-23T09:10:02.781Z,4.01
2016-12-23T09:15:03.121Z,4.12
2016-12-23T09:20:02.576Z,4.31
2016-12-23T09:25:02.955Z,4.47
2016-12-23T09:30:02.368Z,4.58
2016-12-23T09:35:02.769Z,4.61
2016-12-23T09:40:03.515Z,4.6
2016-12-23T09:45:02.278Z,4.59
2016-12-23T09:50:02.630Z,4.6
2016-12-23T09:55:03.026Z,4.63
2016-12-23T10:00:02.446Z,4.71
2016-12-23T10:05:02.839Z,4.8
2016-12-23T10:10:02.265Z,4.96
2016-12-23T10:15:02.651Z,5.1
2016-12-23T10:20:02.334Z,5.23
2016-12-23T10:25:02.749Z,5.33
2016-12-23T10:30:03.167Z,5.39
2016-12-23T10:35:02.586Z,5.41
2016-12-23T11:05:02.904Z,5.55
2016-12-23T11:10:02.283Z,5.56
2016-12-23T11:15:02.677Z,5.63
2016-12-23T11:20:03.124Z,5.66
2016-12-23T11:25:03.870Z,5.7
2016-12-23T11:30:03.098Z,5.74
2016-12-23T11:35:02.417Z,5.75
2016-12-23T11:40:02.792Z,5.75
2016-12-23T11:45:02.193Z,5.74
2016-12-23T11:50:02.598Z,5.75
2016-12-23T11:55:03.047Z,5.76
2016-12-23T12:00:02.462Z,5.78
2016-12-23T12:05:02.887Z,5.83
2016-12-23T12:10:03.085Z,5.89
2016-12-23T12:15:02.652Z,5.95
2016-12-23T12:20:04.135Z,5.98
2016-12-23T12:25:03.138Z,5.98
2016-12-23T12:30:02.567Z,5.98
2016-12-23T12:35:02.960Z,5.92
2016-12-23T12:40:02.348Z,5.84
2016-12-23T12:45:02.731Z,5.76
2016-12-23T12:50:03.168Z,5.76
2016-12-23T12:55:02.543Z,5.77
2016-12-23T13:00:02.888Z,5.79
2016-12-23T13:05:02.262Z,5.83
2016-12-23T13:10:02.718Z,5.87
2016-12-23T13:15:03.124Z,5.91
2016-12-23T13:20:02.532Z,5.89
2016-12-23T13:25:02.880Z,5.85
2016-12-23T13:30:02.322Z,5.81
2016-12-23T13:35:02.729Z,5.78
2016-12-23T13:40:03.142Z,5.74
2016-12-23T13:45:03.464Z,5.72
2016-12-23T13:50:02.923Z,5.75
2016-12-23T13:55:03.768Z,5.76
2016-12-23T14:00:02.927Z,5.78
2016-12-23T14:05:02.373Z,5.76
2016-12-23T14:10:02.809Z,5.74
2016-12-23T14:15:02.239Z,5.68
2016-12-23T14:20:02.732Z,5.63
2016-12-23T14:25:03.113Z,5.59
2016-12-23T14:30:02.491Z,5.53
2016-12-23T14:35:02.854Z,5.46
2016-12-23T14:40:02.238Z,5.37
2016-12-23T14:45:02.884Z,5.3
2016-12-23T14:50:25.117Z,5.21
2016-12-23T14:55:02.467Z,5.15
2016-12-23T15:00:02.991Z,5.05
2016-12-23T15:05:27.942Z,4.95
2016-12-23T15:10:02.383Z,4.86
2016-12-23T15:15:03.505Z,4.75
2016-12-23T15:20:03.132Z,4.65
2016-12-23T15:25:02.581Z,4.58
2016-12-23T15:30:02.955Z,4.52
2016-12-23T15:35:02.347Z,4.47
2016-12-23T15:40:03.488Z,4.38
2016-12-23T15:45:02.896Z,4.3
2016-12-23T15:50:02.249Z,4.2
2016-12-23T15:55:02.604Z,4.16
2016-12-23T16:00:03.013Z,4.1
2016-12-23T16:05:02.397Z,4.08
2016-12-23T16:10:02.765Z,4.08
2016-12-23T16:15:03.124Z,4.05
2016-12-23T16:20:02.678Z,4.02
2016-12-23T16:25:03.196Z,3.98
2016-12-23T16:30:02.740Z,3.93
2016-12-23T16:35:03.085Z,3.87
2016-12-23T16:40:02.445Z,3.79
2016-12-23T16:45:02.925Z,3.73
2016-12-23T16:50:02.268Z,3.68
2016-12-23T16:55:02.741Z,3.61
2016-12-23T17:00:03.127Z,3.56
2016-12-23T17:10:03.430Z,3.48
2016-12-23T17:15:02.755Z,3.43
2016-12-23T17:20:02.129Z,3.42
2016-12-23T17:25:28.568Z,3.4
2016-12-23T17:30:03.087Z,3.35
2016-12-23T17:35:02.513Z,3.31
2016-12-23T17:40:02.828Z,3.29
2016-12-23T17:45:02.177Z,3.26
2016-12-23T17:50:02.889Z,3.26
2016-12-23T17:55:02.621Z,3.28
2016-12-23T18:00:03.971Z,3.26
2016-12-23T18:05:03.023Z,3.21
2016-12-23T18:10:02.328Z,3.18
2016-12-23T18:15:02.681Z,3.14
2016-12-23T18:20:03.153Z,3.1
2016-12-23T18:25:02.661Z,3.06
2016-12-23T18:30:03.230Z,3.03
2016-12-23T18:35:02.595Z,3.02
2016-12-23T18:40:03.108Z,2.99
2016-12-23T18:45:02.517Z,2.97
2016-12-23T18:50:03.001Z,2.95
2016-12-23T18:55:02.413Z,2.93
2016-12-23T19:00:02.886Z,2.9
2016-12-23T19:05:02.302Z,2.87
2016-12-23T19:10:02.703Z,2.85
2016-12-23T19:15:03.170Z,2.82
2016-12-23T19:20:02.809Z,2.83
2016-12-23T19:25:02.173Z,2.83
2016-12-23T19:30:02.617Z,2.84
2016-12-23T19:35:02.980Z,2.86
2016-12-23T19:40:02.301Z,2.89
2016-12-23T19:45:02.680Z,2.95
2016-12-23T19:50:03.058Z,2.95
2016-12-23T19:55:02.470Z,2.93
2016-12-23T20:00:02.967Z,2.91
2016-12-23T20:05:02.372Z,2.91
2016-12-23T20:10:03.565Z,2.9
2016-12-23T20:15:02.955Z,2.88
2016-12-23T20:20:03.427Z,2.86
2016-12-23T20:25:04.459Z,2.84
2016-12-23T20:30:05.421Z,2.82
2016-12-23T20:35:06.055Z,2.76
2016-12-23T20:40:06.262Z,2.71
2016-12-23T20:45:04.423Z,2.66
2016-12-23T20:50:02.833Z,2.62
2016-12-23T20:55:02.384Z,2.59
2016-12-23T21:00:02.743Z,2.61
2016-12-23T21:05:05.558Z,2.59
2016-12-23T21:10:05.420Z,2.59
2016-12-23T21:15:02.617Z,2.6
2016-12-23T21:20:03.180Z,2.6
2016-12-23T21:25:02.546Z,2.66
2016-12-23T21:30:02.930Z,2.66
2016-12-23T21:35:02.451Z,2.66
2016-12-23T21:40:06.993Z,2.67
2016-12-23T21:45:03.363Z,2.72
2016-12-23T21:50:03.397Z,2.73
2016-12-23T21:55:03.589Z,2.75
2016-12-23T22:00:06.199Z,2.76
2016-12-23T22:05:06.084Z,2.78
2016-12-23T22:10:03.789Z,2.83
2016-12-23T22:15:05.502Z,2.91
2016-12-23T22:20:02.226Z,2.99
2016-12-23T22:25:02.721Z,3.05
2016-12-23T22:30:03.062Z,3.11
2016-12-23T22:35:04.346Z,3.17
2016-12-23T22:40:06.247Z,3.19
2016-12-23T22:45:02.717Z,3.23
2016-12-23T22:50:03.261Z,3.3
2016-12-23T22:55:02.577Z,3.34
2016-12-23T23:00:02.970Z,3.39
2016-12-23T23:05:02.324Z,3.39
2016-12-23T23:10:02.669Z,3.42
2016-12-23T23:15:02.974Z,3.46
2016-12-23T23:20:02.402Z,3.52
2016-12-23T23:25:02.750Z,3.59
2016-12-23T23:30:03.117Z,3.65
2016-12-23T23:35:02.525Z,3.68
2016-12-23T23:40:02.895Z,3.71
2016-12-23T23:45:02.248Z,3.75
2016-12-23T23:50:02.715Z,3.77
2016-12-23T23:55:03.057Z,3.78
